Time;durP1;ratioP1;P1;durP2;ratioP2;P2;SDS_P1;SDS_P2;PMS_P1;PMS_P2;Temp;Humidity;BMP_temperature;BMP_pressure;BME280_temperature;BME280_humidity;BME280_pressure;Samples;Min_cycle;Max_cycle;Signal;HPM_P1;HPM_P2
2022/05/26 00:01:34;;;;;;;17.65;4.20;;;;;;;;;;5039372;28;20041;-49
2022/05/26 00:04:01;;;;;;;18.95;5.05;;;;;;;;;;5042090;28;20119;-48
2022/05/26 00:06:29;;;;;;;21.23;5.28;;;;;;;;;;5042417;28;20030;-51
2022/05/26 00:08:57;;;;;;;25.30;6.10;;;;;;;;;;5039134;28;20029;-48
2022/05/26 00:11:28;;;;;;;20.92;6.50;;;;;;;;;;5052202;28;20082;-52
2022/05/26 00:13:55;;;;;;;20.65;6.10;;;;;;;;;;5052769;28;20029;-45
2022/05/26 00:16:22;;;;;;;18.33;5.65;;;;;;;;;;5052522;28;20478;-45
2022/05/26 00:18:49;;;;;;;22.88;5.80;;;;;;;;;;5052955;28;20025;-46
2022/05/26 00:21:16;;;;;;;15.98;5.50;;;;;;;;;;5049436;28;20025;-45
2022/05/26 00:23:43;;;;;;;16.45;6.40;;;;;;;;;;5040458;28;20038;-44
2022/05/26 00:26:10;;;;;;;17.73;5.75;;;;;;;;;;5042204;28;20375;-52
2022/05/26 00:28:38;;;;;;;21.63;6.40;;;;;;;;;;5048573;28;20577;-49
2022/05/26 00:31:05;;;;;;;23.95;5.93;;;;;;;;;;5049810;28;20032;-48
2022/05/26 00:33:32;;;;;;;27.45;6.80;;;;;;;;;;5050524;28;20470;-45
2022/05/26 00:36:06;;;;;;;21.17;6.65;;;;;;;;;;5050236;28;20029;-45
2022/05/26 00:38:34;;;;;;;18.92;6.30;;;;;;;;;;5031300;28;20024;-45
2022/05/26 00:41:04;;;;;;;21.55;6.75;;;;;;;;;;5052326;28;20846;-49
2022/05/26 00:43:32;;;;;;;25.13;7.72;;;;;;;;;;5032734;28;20020;-47
2022/05/26 00:46:06;;;;;;;20.35;8.15;;;;;;;;;;5033177;28;20423;-48
2022/05/26 00:48:40;;;;;;;26.88;8.15;;;;;;;;;;5050720;28;20043;-46
2022/05/26 00:51:07;;;;;;;21.77;8.23;;;;;;;;;;5050922;28;20382;-51
2022/05/26 00:53:38;;;;;;;22.15;8.75;;;;;;;;;;5050231;28;20051;-48
2022/05/26 00:56:11;;;;;;;27.02;8.38;;;;;;;;;;5051119;28;20090;-50
2022/05/26 00:58:40;;;;;;;21.08;8.95;;;;;;;;;;5047938;28;20099;-51
2022/05/26 01:01:07;;;;;;;22.15;9.38;;;;;;;;;;5032999;28;20118;-51
2022/05/26 01:03:57;;;;;;;21.27;9.65;;;;;;;;;;5041796;28;20041;-47
2022/05/26 01:06:45;;;;;;;18.83;8.85;;;;;;;;;;5021954;28;20462;-44
2022/05/26 01:09:12;;;;;;;25.00;9.75;;;;;;;;;;5032029;28;20486;-47
2022/05/26 01:11:40;;;;;;;20.02;9.27;;;;;;;;;;5032330;28;20051;-45
2022/05/26 01:14:27;;;;;;;20.98;9.35;;;;;;;;;;5031652;28;20025;-45
2022/05/26 01:17:09;;;;;;;26.10;10.52;;;;;;;;;;5031679;28;20021;-46
2022/05/26 01:19:54;;;;;;;22.60;9.65;;;;;;;;;;5015426;28;20360;-45
2022/05/26 01:22:30;;;;;;;20.23;9.60;;;;;;;;;;5052076;28;20079;-50
2022/05/26 01:25:16;;;;;;;20.65;9.73;;;;;;;;;;5052109;28;20025;-48
2022/05/26 01:27:45;;;;;;;25.52;10.07;;;;;;;;;;5050929;28;20419;-47
2022/05/26 01:30:23;;;;;;;21.70;10.07;;;;;;;;;;5051342;28;20025;-47
2022/05/26 01:32:58;;;;;;;24.00;9.63;;;;;;;;;;5051822;28;20025;-48
2022/05/26 01:35:25;;;;;;;17.85;8.57;;;;;;;;;;5051272;28;20028;-51
2022/05/26 01:38:17;;;;;;;17.35;8.70;;;;;;;;;;5050746;28;20093;-48
2022/05/26 01:40:44;;;;;;;;;;;;;;;;;;5051439;28;20434;-50
2022/05/26 01:43:21;;;;;;;20.77;8.88;;;;;;;;;;5051474;28;20287;-44
2022/05/26 01:45:58;;;;;;;22.17;9.52;;;;;;;;;;5050904;28;20024;-48
2022/05/26 01:48:29;;;;;;;18.23;9.05;;;;;;;;;;5033189;28;20447;-53
2022/05/26 01:50:56;;;;;;;27.75;9.82;;;;;;;;;;5050546;28;20406;-47
2022/05/26 01:53:58;;;;;;;20.48;8.88;;;;;;;;;;5051177;28;20519;-45
2022/05/26 01:56:40;;;;;;;20.95;8.68;;;;;;;;;;4950937;28;20023;-48
2022/05/26 01:59:27;;;;;;;28.75;8.48;;;;;;;;;;5042484;28;20056;-47
2022/05/26 02:01:58;;;;;;;18.73;8.30;;;;;;;;;;5051194;28;20025;-47
2022/05/26 02:04:27;;;;;;;13.63;8.07;;;;;;;;;;5051958;28;20024;-47
2022/05/26 02:07:14;;;;;;;16.75;8.00;;;;;;;;;;5044131;28;20074;-44
2022/05/26 02:09:41;;;;;;;20.48;7.97;;;;;;;;;;5043424;28;20100;-48
2022/05/26 02:12:22;;;;;;;20.92;8.30;;;;;;;;;;5031864;28;20075;-47
2022/05/26 02:14:52;;;;;;;18.67;7.80;;;;;;;;;;5031600;28;20033;-47
2022/05/26 02:17:30;;;;;;;17.48;7.55;;;;;;;;;;5031810;28;20018;-49
2022/05/26 02:20:16;;;;;;;17.33;7.75;;;;;;;;;;5033307;28;20025;-48
2022/05/26 02:22:51;;;;;;;19.02;7.85;;;;;;;;;;5051903;28;20025;-48
2022/05/26 02:25:20;;;;;;;17.17;7.43;;;;;;;;;;5051864;28;20033;-46
2022/05/26 02:27:48;;;;;;;17.75;7.88;;;;;;;;;;5051057;28;20032;-45
2022/05/26 02:30:15;;;;;;;15.90;7.15;;;;;;;;;;5051822;28;20025;-48
2022/05/26 02:32:48;;;;;;;18.10;7.45;;;;;;;;;;5032602;28;20390;-46
2022/05/26 02:35:16;;;;;;;14.88;7.13;;;;;;;;;;5051234;28;20118;-48
2022/05/26 02:37:44;;;;;;;16.30;7.32;;;;;;;;;;5032794;28;20558;-45
2022/05/26 02:40:12;;;;;;;18.33;7.57;;;;;;;;;;5051562;28;20021;-45
2022/05/26 02:42:49;;;;;;;17.52;7.47;;;;;;;;;;5051581;28;20029;-50
2022/05/26 02:45:19;;;;;;;15.60;7.13;;;;;;;;;;5050785;28;20037;-48
2022/05/26 02:47:46;;;;;;;18.75;7.57;;;;;;;;;;5050806;28;20036;-45
2022/05/26 02:50:25;;;;;;;14.95;7.50;;;;;;;;;;5051760;28;20029;-48
2022/05/26 02:53:05;;;;;;;16.85;7.30;;;;;;;;;;5051731;28;20083;-49
2022/05/26 02:55:42;;;;;;;18.30;7.45;;;;;;;;;;5055482;28;20032;-46
2022/05/26 02:58:12;;;;;;;16.90;7.80;;;;;;;;;;5055099;28;20053;-45
2022/05/26 03:00:46;;;;;;;18.73;7.10;;;;;;;;;;5054849;28;20100;-49
2022/05/26 03:03:15;;;;;;;14.55;6.78;;;;;;;;;;5055507;28;20029;-47
2022/05/26 03:05:55;;;;;;;14.80;6.85;;;;;;;;;;5055042;28;20083;-49
2022/05/26 03:08:23;;;;;;;18.77;7.13;;;;;;;;;;5055453;28;20052;-45
2022/05/26 03:10:51;;;;;;;14.68;6.47;;;;;;;;;;5055040;28;20398;-44
2022/05/26 03:13:18;;;;;;;16.42;6.60;;;;;;;;;;5054796;28;20036;-47
2022/05/26 03:15:45;;;;;;;14.73;7.03;;;;;;;;;;5055615;28;20025;-46
2022/05/26 03:18:12;;;;;;;15.80;6.80;;;;;;;;;;5055218;28;20099;-49
2022/05/26 03:20:39;;;;;;;13.70;6.63;;;;;;;;;;5055295;28;20040;-49
2022/05/26 03:23:06;;;;;;;17.58;6.80;;;;;;;;;;5054547;28;20029;-45
2022/05/26 03:25:33;;;;;;;15.60;7.95;;;;;;;;;;5054477;28;20035;-45
2022/05/26 03:28:00;;;;;;;12.45;6.93;;;;;;;;;;5055176;28;20376;-48
2022/05/26 03:30:27;;;;;;;12.23;7.05;;;;;;;;;;5055137;28;20094;-46
2022/05/26 03:32:54;;;;;;;13.43;6.82;;;;;;;;;;5054476;28;20033;-46
2022/05/26 03:40:57;;;;;;;12.43;6.63;;;;;;;;;;5054542;28;20067;-45
2022/05/26 03:43:36;;;;;;;11.73;6.35;;;;;;;;;;5037047;28;20501;-48
2022/05/26 03:46:03;;;;;;;14.55;6.00;;;;;;;;;;5055051;28;20498;-47
2022/05/26 03:48:30;;;;;;;9.88;5.97;;;;;;;;;;5053963;28;20037;-45
2022/05/26 03:50:58;;;;;;;9.60;6.43;;;;;;;;;;5054916;28;20074;-46
2022/05/26 03:53:25;;;;;;;11.38;6.75;;;;;;;;;;5053896;28;20037;-49
2022/05/26 03:55:52;;;;;;;12.48;7.05;;;;;;;;;;5054834;28;20029;-47
2022/05/26 03:58:19;;;;;;;14.00;7.30;;;;;;;;;;5054575;28;20156;-46
2022/05/26 04:00:46;;;;;;;10.95;6.05;;;;;;;;;;5053779;28;20112;-47
2022/05/26 04:03:13;;;;;;;12.98;6.50;;;;;;;;;;5054820;28;20041;-46
2022/05/26 04:05:40;;;;;;;16.05;6.68;;;;;;;;;;5053354;28;20097;-49
2022/05/26 04:08:07;;;;;;;13.73;6.53;;;;;;;;;;5054493;28;20040;-50
2022/05/26 04:10:35;;;;;;;11.20;6.22;;;;;;;;;;5054599;28;20105;-47
2022/05/26 04:13:02;;;;;;;13.95;6.30;;;;;;;;;;5053470;28;20021;-45
2022/05/26 04:15:28;;;;;;;10.68;6.43;;;;;;;;;;5053787;28;20068;-47
2022/05/26 04:17:56;;;;;;;11.10;6.25;;;;;;;;;;5054211;28;20080;-45
2022/05/26 04:20:23;;;;;;;10.52;6.35;;;;;;;;;;5053758;28;20058;-45
2022/05/26 04:22:51;;;;;;;8.20;5.43;;;;;;;;;;5054447;28;20098;-46
2022/05/26 04:25:20;;;;;;;12.48;6.38;;;;;;;;;;5053438;28;20024;-45
2022/05/26 04:27:47;;;;;;;8.73;5.80;;;;;;;;;;5053940;28;20187;-48
2022/05/26 04:30:14;;;;;;;10.65;5.35;;;;;;;;;;5053844;28;20025;-49
2022/05/26 04:32:41;;;;;;;9.23;5.40;;;;;;;;;;5054079;28;20127;-44
2022/05/26 04:35:09;;;;;;;9.90;6.32;;;;;;;;;;5053176;28;20044;-48
2022/05/26 04:37:36;;;;;;;9.30;5.60;;;;;;;;;;5053440;28;20083;-45
2022/05/26 04:40:03;;;;;;;7.38;5.32;;;;;;;;;;5053615;28;20025;-46
2022/05/26 04:42:30;;;;;;;10.32;5.63;;;;;;;;;;5053981;28;20110;-50
2022/05/26 04:44:58;;;;;;;9.10;5.68;;;;;;;;;;5053047;28;20025;-48
2022/05/26 04:47:26;;;;;;;9.02;5.57;;;;;;;;;;5053740;28;20068;-46
2022/05/26 04:49:53;;;;;;;9.38;5.88;;;;;;;;;;5053109;28;20031;-47
2022/05/26 04:52:21;;;;;;;10.30;5.93;;;;;;;;;;5053621;28;20044;-46
2022/05/26 04:54:48;;;;;;;9.75;5.38;;;;;;;;;;5053894;28;20028;-44
2022/05/26 04:57:16;;;;;;;13.82;5.55;;;;;;;;;;5052753;28;20051;-46
2022/05/26 04:59:43;;;;;;;9.30;5.05;;;;;;;;;;5053500;28;20124;-45
2022/05/26 05:02:14;;;;;;;8.15;5.78;;;;;;;;;;5053174;28;20819;-47
2022/05/26 05:04:41;;;;;;;9.27;5.10;;;;;;;;;;5053036;28;20025;-48
2022/05/26 05:07:09;;;;;;;10.60;5.32;;;;;;;;;;5052702;28;20029;-45
2022/05/26 05:09:37;;;;;;;7.65;5.40;;;;;;;;;;5052990;28;20475;-47
2022/05/26 05:12:05;;;;;;;10.02;5.75;;;;;;;;;;5052890;28;20033;-45
2022/05/26 05:14:35;;;;;;;9.98;5.78;;;;;;;;;;5052597;28;20040;-49
2022/05/26 05:17:03;;;;;;;7.28;5.07;;;;;;;;;;5034603;28;20029;-48
2022/05/26 05:19:31;;;;;;;10.73;5.30;;;;;;;;;;5052504;28;20487;-45
2022/05/26 05:22:04;;;;;;;8.00;5.07;;;;;;;;;;5052932;28;20064;-46
2022/05/26 05:24:34;;;;;;;9.07;5.50;;;;;;;;;;5052611;28;20112;-45
2022/05/26 05:27:05;;;;;;;10.00;5.65;;;;;;;;;;5053128;28;20025;-48
2022/05/26 05:29:34;;;;;;;7.97;4.63;;;;;;;;;;5052402;28;20022;-45
2022/05/26 05:32:05;;;;;;;8.52;5.10;;;;;;;;;;5052801;28;20033;-46
2022/05/26 05:34:43;;;;;;;9.85;5.40;;;;;;;;;;5052222;28;20025;-45
2022/05/26 05:37:10;;;;;;;8.55;5.50;;;;;;;;;;5052289;28;20084;-51
2022/05/26 05:39:37;;;;;;;8.02;4.88;;;;;;;;;;5052437;28;20036;-46
2022/05/26 05:42:04;;;;;;;7.07;5.22;;;;;;;;;;5051709;28;20041;-45
2022/05/26 05:44:33;;;;;;;7.75;4.80;;;;;;;;;;5052247;28;20092;-46
2022/05/26 05:47:01;;;;;;;7.35;4.40;;;;;;;;;;5052307;28;20064;-45
2022/05/26 05:49:32;;;;;;;7.47;4.97;;;;;;;;;;5052296;28;20772;-46
2022/05/26 05:52:05;;;;;;;8.50;4.72;;;;;;;;;;5052635;28;20037;-48
2022/05/26 05:54:32;;;;;;;6.45;4.30;;;;;;;;;;5051754;28;20138;-44
2022/05/26 05:56:59;;;;;;;7.10;4.82;;;;;;;;;;5052078;28;20630;-45
2022/05/26 05:59:26;;;;;;;6.50;4.60;;;;;;;;;;5051928;28;20510;-45
2022/05/26 06:01:54;;;;;;;6.63;4.28;;;;;;;;;;5052600;28;20040;-45
2022/05/26 06:04:21;;;;;;;7.32;4.20;;;;;;;;;;5051477;28;20171;-45
2022/05/26 06:06:48;;;;;;;8.10;4.70;;;;;;;;;;5051966;28;20021;-46
2022/05/26 06:09:16;;;;;;;8.18;4.57;;;;;;;;;;5051600;28;20075;-45
2022/05/26 06:11:43;;;;;;;6.75;3.53;;;;;;;;;;5051814;28;20090;-47
2022/05/26 06:14:10;;;;;;;7.40;4.13;;;;;;;;;;5051494;28;20094;-45
2022/05/26 06:16:37;;;;;;;7.10;4.40;;;;;;;;;;5052361;28;20123;-46
2022/05/26 06:19:04;;;;;;;8.20;4.18;;;;;;;;;;5051738;28;20038;-45
2022/05/26 06:21:32;;;;;;;6.00;4.28;;;;;;;;;;5052074;28;20051;-44
2022/05/26 06:24:00;;;;;;;5.50;3.80;;;;;;;;;;5052089;28;20448;-45
2022/05/26 06:26:28;;;;;;;5.93;3.97;;;;;;;;;;5051536;28;20518;-45
2022/05/26 06:37:13;;;;;;;7.38;3.70;;;;;;;;;;5052132;28;20140;-46
2022/05/26 06:37:22;;;;;;;7.03;3.83;;;;;;;;;;5020132;28;20065;-47
2022/05/26 06:39:49;;;;;;;6.22;3.70;;;;;;;;;;5050197;28;20033;-45
2022/05/26 06:42:17;;;;;;;6.03;4.20;;;;;;;;;;5050984;28;20467;-46
2022/05/26 06:44:45;;;;;;;4.93;3.70;;;;;;;;;;5051594;28;20037;-45
2022/05/26 06:47:17;;;;;;;5.60;3.60;;;;;;;;;;5051222;28;20029;-44
2022/05/26 06:49:45;;;;;;;6.07;3.83;;;;;;;;;;5051207;28;20031;-45
2022/05/26 06:52:12;;;;;;;7.95;3.95;;;;;;;;;;5051960;28;20040;-46
2022/05/26 06:54:43;;;;;;;6.15;3.58;;;;;;;;;;5051491;28;20075;-46
2022/05/26 06:57:11;;;;;;;6.25;4.28;;;;;;;;;;5051497;28;20029;-47
2022/05/26 06:59:38;;;;;;;7.53;4.35;;;;;;;;;;5051619;28;20068;-44
2022/05/26 07:02:07;;;;;;;5.93;4.13;;;;;;;;;;5051946;28;20494;-46
2022/05/26 07:04:34;;;;;;;5.25;3.63;;;;;;;;;;5050843;28;20021;-45
2022/05/26 07:07:01;;;;;;;5.97;3.70;;;;;;;;;;5051002;28;20543;-47
2022/05/26 07:09:30;;;;;;;5.13;3.72;;;;;;;;;;5051044;28;20025;-44
2022/05/26 07:11:58;;;;;;;8.15;3.85;;;;;;;;;;5050899;28;20387;-46
2022/05/26 07:14:25;;;;;;;7.00;3.78;;;;;;;;;;5050920;28;20033;-45
2022/05/26 07:16:52;;;;;;;5.32;3.25;;;;;;;;;;5051220;28;20028;-45
2022/05/26 07:19:19;;;;;;;6.65;3.70;;;;;;;;;;5051232;28;20028;-45
2022/05/26 07:21:48;;;;;;;6.35;3.80;;;;;;;;;;5050526;28;20029;-46
2022/05/26 07:24:17;;;;;;;5.82;4.00;;;;;;;;;;5051115;28;20459;-47
2022/05/26 07:26:44;;;;;;;5.93;3.80;;;;;;;;;;5050958;28;20052;-46
2022/05/26 07:29:11;;;;;;;5.15;3.75;;;;;;;;;;5051078;28;20024;-46
2022/05/26 07:31:38;;;;;;;6.07;4.38;;;;;;;;;;5051067;28;20025;-47
2022/05/26 07:34:05;;;;;;;7.03;4.00;;;;;;;;;;5051452;28;20486;-45
2022/05/26 07:42:03;;;;;;;5.75;3.50;;;;;;;;;;5054845;28;20423;-45
2022/05/26 07:44:32;;;;;;;7.65;3.72;;;;;;;;;;5054632;28;20033;-45
2022/05/26 07:46:59;;;;;;;5.05;3.33;;;;;;;;;;5054378;28;20021;-44
2022/05/26 07:49:26;;;;;;;4.78;3.00;;;;;;;;;;5054768;28;20479;-45
2022/05/26 07:51:53;;;;;;;4.25;3.20;;;;;;;;;;5054533;28;20029;-45
2022/05/26 07:54:20;;;;;;;4.50;3.17;;;;;;;;;;5054932;28;20036;-44
2022/05/26 07:56:47;;;;;;;5.32;3.30;;;;;;;;;;5053778;28;20021;-49
2022/05/26 07:59:14;;;;;;;5.18;3.03;;;;;;;;;;5054043;28;20391;-45
2022/05/26 08:01:41;;;;;;;4.90;3.47;;;;;;;;;;5054474;28;20037;-47
2022/05/26 08:04:08;;;;;;;6.22;3.50;;;;;;;;;;5054587;28;20021;-44
2022/05/26 08:06:36;;;;;;;5.30;3.75;;;;;;;;;;5053836;28;20068;-45
2022/05/26 08:09:03;;;;;;;5.07;3.15;;;;;;;;;;5054488;28;20029;-45
2022/05/26 08:11:30;;;;;;;7.57;3.25;;;;;;;;;;5053865;28;20056;-46
2022/05/26 08:13:57;;;;;;;3.58;2.83;;;;;;;;;;5054251;28;20075;-48
2022/05/26 08:16:24;;;;;;;4.53;2.72;;;;;;;;;;5054456;28;20033;-47
2022/05/26 08:18:51;;;;;;;5.72;3.05;;;;;;;;;;5053901;28;20386;-47
2022/05/26 08:21:18;;;;;;;4.85;2.83;;;;;;;;;;5036097;28;20542;-45
2022/05/26 08:23:45;;;;;;;5.28;3.25;;;;;;;;;;5053600;28;20025;-46
2022/05/26 08:26:12;;;;;;;5.85;2.83;;;;;;;;;;5054349;28;20047;-45
2022/05/26 08:28:39;;;;;;;3.72;2.88;;;;;;;;;;5053475;28;20386;-44
2022/05/26 08:31:08;;;;;;;3.90;2.72;;;;;;;;;;5053716;28;20083;-45
2022/05/26 08:33:36;;;;;;;4.55;2.83;;;;;;;;;;5053651;28;20033;-46
2022/05/26 08:36:11;;;;;;;4.57;2.83;;;;;;;;;;5053130;28;20090;-45
2022/05/26 08:38:38;;;;;;;4.82;2.95;;;;;;;;;;5054096;28;20530;-45
2022/05/26 08:41:06;;;;;;;4.07;2.60;;;;;;;;;;5053513;28;20421;-45
2022/05/26 08:43:37;;;;;;;4.97;2.42;;;;;;;;;;5053505;28;20029;-45
2022/05/26 08:46:06;;;;;;;4.13;2.50;;;;;;;;;;5054013;28;20112;-49
2022/05/26 08:48:48;;;;;;;4.35;2.60;;;;;;;;;;5052630;28;20028;-44
2022/05/26 08:51:21;;;;;;;3.80;2.75;;;;;;;;;;5053537;28;20021;-47
2022/05/26 08:53:48;;;;;;;3.50;2.30;;;;;;;;;;5053255;28;20470;-44
2022/05/26 08:56:19;;;;;;;3.63;2.53;;;;;;;;;;5053503;28;20104;-46
2022/05/26 08:58:47;;;;;;;3.97;2.58;;;;;;;;;;5053506;28;20049;-44
2022/05/26 09:01:17;;;;;;;5.05;2.72;;;;;;;;;;5052888;28;20047;-47
2022/05/26 09:03:44;;;;;;;5.30;2.13;;;;;;;;;;5052601;28;20086;-45
2022/05/26 09:06:14;;;;;;;3.60;2.38;;;;;;;;;;5053128;28;20033;-45
2022/05/26 09:14:44;;;;;;;4.18;2.05;;;;;;;;;;5052762;28;20048;-44
2022/05/26 09:17:13;;;;;;;3.47;2.17;;;;;;;;;;5052091;28;20094;-44
2022/05/26 09:19:45;;;;;;;3.33;2.03;;;;;;;;;;5053208;28;20454;-44
2022/05/26 09:22:27;;;;;;;3.67;2.50;;;;;;;;;;5053060;28;20086;-45
2022/05/26 09:24:54;;;;;;;3.00;2.22;;;;;;;;;;5052372;28;20013;-45
2022/05/26 09:27:24;;;;;;;3.28;1.90;;;;;;;;;;5052097;28;20025;-47
2022/05/26 09:29:51;;;;;;;3.33;2.20;;;;;;;;;;5052887;28;20490;-45
2022/05/26 09:32:19;;;;;;;3.28;2.20;;;;;;;;;;5052338;28;20033;-44
2022/05/26 09:35:07;;;;;;;3.55;2.17;;;;;;;;;;5034345;28;20029;-45
2022/05/26 09:37:41;;;;;;;4.15;1.80;;;;;;;;;;5052600;28;20031;-44
2022/05/26 09:40:19;;;;;;;3.13;2.08;;;;;;;;;;5052318;28;20021;-44
2022/05/26 09:42:47;;;;;;;6.07;2.10;;;;;;;;;;5052738;28;20394;-44
2022/05/26 09:45:18;;;;;;;2.88;1.85;;;;;;;;;;5052396;28;20379;-47
2022/05/26 09:47:54;;;;;;;4.60;2.08;;;;;;;;;;5052586;28;20029;-45
2022/05/26 09:50:39;;;;;;;4.25;2.20;;;;;;;;;;5051908;28;20521;-46
2022/05/26 09:53:07;;;;;;;3.17;2.10;;;;;;;;;;5052586;28;20028;-46
2022/05/26 09:55:55;;;;;;;3.20;2.13;;;;;;;;;;5052334;28;20025;-47
2022/05/26 09:58:28;;;;;;;3.17;2.05;;;;;;;;;;5051656;28;20049;-45
2022/05/26 10:01:06;;;;;;;3.03;1.85;;;;;;;;;;5051994;28;20029;-44
2022/05/26 10:03:52;;;;;;;2.67;1.98;;;;;;;;;;5051634;28;20087;-45
2022/05/26 10:06:25;;;;;;;3.00;2.13;;;;;;;;;;5052282;28;20044;-47
2022/05/26 10:09:00;;;;;;;3.15;2.17;;;;;;;;;;5051594;28;20518;-45
2022/05/26 10:11:45;;;;;;;3.78;1.80;;;;;;;;;;5051311;28;20102;-44
2022/05/26 10:14:30;;;;;;;2.28;1.77;;;;;;;;;;5052347;28;20033;-45
2022/05/26 10:17:19;;;;;;;3.40;1.58;;;;;;;;;;5051679;28;20031;-47
2022/05/26 10:20:12;;;;;;;2.80;1.90;;;;;;;;;;5052115;28;20033;-44
2022/05/26 10:22:38;;;;;;;;;;;;;;;;;;5014251;28;20067;-44
2022/05/26 10:25:05;;;;;;;3.55;1.77;;;;;;;;;;5050987;28;19908;-46
2022/05/26 10:27:50;;;;;;;4.18;1.60;;;;;;;;;;5051929;28;20021;-46
2022/05/26 10:30:35;;;;;;;2.65;1.77;;;;;;;;;;5051590;28;20120;-46
2022/05/26 10:33:20;;;;;;;3.47;1.67;;;;;;;;;;5051930;28;20029;-45
2022/05/26 10:36:06;;;;;;;4.28;2.05;;;;;;;;;;5051153;28;20040;-46
2022/05/26 10:39:11;;;;;;;2.75;1.40;;;;;;;;;;5052040;28;20036;-48
2022/05/26 10:41:41;;;;;;;2.53;1.73;;;;;;;;;;4950493;29;20647;-45
2022/05/26 10:44:31;;;;;;;3.15;1.55;;;;;;;;;;4951551;29;20121;-45
2022/05/26 10:47:05;;;;;;;2.53;1.63;;;;;;;;;;5004117;28;20037;-45
2022/05/26 10:49:38;;;;;;;2.83;1.90;;;;;;;;;;5036457;28;20025;-45
2022/05/26 10:52:08;;;;;;;2.42;1.45;;;;;;;;;;5051908;28;20104;-44
2022/05/26 10:54:35;;;;;;;3.08;1.58;;;;;;;;;;5051295;28;20037;-45
2022/05/26 10:57:15;;;;;;;3.30;1.60;;;;;;;;;;5051608;28;20029;-44
2022/05/26 11:00:08;;;;;;;1.95;1.52;;;;;;;;;;5051705;28;20079;-44
2022/05/26 11:02:53;;;;;;;2.17;1.15;;;;;;;;;;5046854;28;20041;-46
2022/05/26 11:05:38;;;;;;;2.80;1.52;;;;;;;;;;5051895;28;20781;-44
2022/05/26 11:08:23;;;;;;;2.75;1.60;;;;;;;;;;5050715;28;20033;-47
2022/05/26 11:11:19;;;;;;;2.67;1.70;;;;;;;;;;5051152;28;20103;-45
2022/05/26 11:13:55;;;;;;;2.65;1.52;;;;;;;;;;5030804;28;20049;-44
2022/05/26 11:19:25;;;;;;;3.17;1.20;;;;;;;;;;5055955;28;20043;-44
2022/05/26 11:21:52;;;;;;;1.55;1.27;;;;;;;;;;5054865;28;20036;-44
2022/05/26 11:24:22;;;;;;;3.30;1.88;;;;;;;;;;5055152;28;20033;-48
2022/05/26 11:26:53;;;;;;;3.15;1.60;;;;;;;;;;5054889;28;20381;-46
2022/05/26 11:29:30;;;;;;;2.28;1.20;;;;;;;;;;5054781;28;20021;-44
2022/05/26 11:38:07;;;;;;;3.53;1.40;;;;;;;;;;5053958;28;20600;-46
2022/05/26 11:40:36;;;;;;;3.15;1.38;;;;;;;;;;5053524;28;20540;-45
2022/05/26 11:43:07;;;;;;;3.47;1.63;;;;;;;;;;5041086;28;20029;-47
2022/05/26 11:45:36;;;;;;;6.78;1.83;;;;;;;;;;5043252;28;20037;-45
2022/05/26 11:48:04;;;;;;;4.70;1.50;;;;;;;;;;5053454;28;20107;-49
2022/05/26 11:50:37;;;;;;;4.15;1.40;;;;;;;;;;5053575;28;20065;-48
2022/05/26 11:53:06;;;;;;;5.25;1.52;;;;;;;;;;5052104;28;20037;-45
2022/05/26 11:55:47;;;;;;;10.10;1.33;;;;;;;;;;5054370;28;20064;-44
2022/05/26 11:58:19;;;;;;;11.00;2.03;;;;;;;;;;5052077;28;20055;-46
2022/05/26 12:00:47;;;;;;;7.72;1.52;;;;;;;;;;5049334;28;20479;-50
2022/05/26 12:03:23;;;;;;;4.45;1.42;;;;;;;;;;5051754;28;20108;-52
2022/05/26 12:05:57;;;;;;;8.48;1.95;;;;;;;;;;5052080;28;20040;-52
2022/05/26 12:08:32;;;;;;;4.53;1.85;;;;;;;;;;5048151;28;20120;-53
2022/05/26 12:11:01;;;;;;;6.85;1.60;;;;;;;;;;5047243;28;20026;-51
2022/05/26 12:13:29;;;;;;;22.23;3.17;;;;;;;;;;5043177;28;20044;-47
2022/05/26 12:16:14;;;;;;;7.20;2.25;;;;;;;;;;5052305;28;20673;-47
2022/05/26 12:19:01;;;;;;;6.72;2.05;;;;;;;;;;5052090;28;20059;-47
2022/05/26 12:21:31;;;;;;;5.35;1.48;;;;;;;;;;5034689;28;20072;-49
2022/05/26 12:23:59;;;;;;;4.30;1.67;;;;;;;;;;5052844;28;20418;-49
2022/05/26 12:26:27;;;;;;;14.15;1.92;;;;;;;;;;5051939;28;20116;-53
2022/05/26 12:28:55;;;;;;;5.50;1.95;;;;;;;;;;5053102;28;20044;-51
2022/05/26 12:31:22;;;;;;;6.05;1.83;;;;;;;;;;5051621;28;20501;-46
2022/05/26 12:34:02;;;;;;;5.40;1.83;;;;;;;;;;5047870;28;20029;-48
2022/05/26 12:36:51;;;;;;;4.40;1.50;;;;;;;;;;5048898;28;20029;-46
2022/05/26 12:39:30;;;;;;;4.10;1.30;;;;;;;;;;5051768;28;20424;-49
2022/05/26 12:42:00;;;;;;;6.70;1.83;;;;;;;;;;5052145;28;20029;-55
2022/05/26 12:44:40;;;;;;;5.60;1.40;;;;;;;;;;5052659;28;20506;-53
2022/05/26 12:47:24;;;;;;;6.18;1.73;;;;;;;;;;5051872;28;20029;-54
2022/05/26 12:49:57;;;;;;;4.15;1.25;;;;;;;;;;5050702;28;20071;-46
2022/05/26 12:52:31;;;;;;;4.53;1.70;;;;;;;;;;5052203;28;20045;-47
2022/05/26 12:55:17;;;;;;;6.53;1.58;;;;;;;;;;5052055;28;20662;-47
2022/05/26 12:57:48;;;;;;;5.80;1.10;;;;;;;;;;5052432;28;20052;-47
2022/05/26 13:00:22;;;;;;;5.60;1.65;;;;;;;;;;5051977;28;20036;-46
2022/05/26 13:03:08;;;;;;;6.30;1.73;;;;;;;;;;5052766;28;20021;-46
2022/05/26 13:05:40;;;;;;;5.03;1.13;;;;;;;;;;5052225;28;20112;-52
2022/05/26 13:08:14;;;;;;;4.78;1.42;;;;;;;;;;5052054;28;20029;-52
2022/05/26 13:10:41;;;;;;;4.88;1.27;;;;;;;;;;5052208;28;20025;-48
2022/05/26 13:13:21;;;;;;;7.53;2.30;;;;;;;;;;5052217;28;20521;-52
2022/05/26 13:15:48;;;;;;;4.60;1.70;;;;;;;;;;5052201;28;20057;-50
2022/05/26 13:18:23;;;;;;;5.60;1.67;;;;;;;;;;5050922;28;20067;-49
2022/05/26 13:20:51;;;;;;;4.03;1.40;;;;;;;;;;5049886;28;20026;-50
2022/05/26 13:23:31;;;;;;;6.18;1.60;;;;;;;;;;5052892;28;20513;-52
2022/05/26 13:26:03;;;;;;;7.43;1.83;;;;;;;;;;5052603;28;20040;-50
2022/05/26 13:28:33;;;;;;;6.88;1.48;;;;;;;;;;5051370;28;20040;-53
2022/05/26 13:33:50;;;;;;;6.80;1.50;;;;;;;;;;5051757;28;20118;-54
2022/05/26 13:36:26;;;;;;;3.58;1.40;;;;;;;;;;5031799;28;20107;-51
2022/05/26 13:38:53;;;;;;;14.00;2.58;;;;;;;;;;5046236;28;20033;-53
2022/05/26 13:41:21;;;;;;;5.78;1.30;;;;;;;;;;5051342;28;20115;-50
2022/05/26 13:43:49;;;;;;;3.83;1.65;;;;;;;;;;5050560;28;20489;-48
2022/05/26 13:46:39;;;;;;;6.40;1.65;;;;;;;;;;5032230;28;20116;-52
2022/05/26 13:49:28;;;;;;;7.72;1.50;;;;;;;;;;5030242;28;20125;-51
2022/05/26 13:51:55;;;;;;;5.65;1.60;;;;;;;;;;5032115;28;20060;-46
2022/05/26 13:54:22;;;;;;;7.70;1.85;;;;;;;;;;5032142;28;20033;-48
2022/05/26 13:56:49;;;;;;;4.28;1.50;;;;;;;;;;5031568;28;20107;-48
2022/05/26 13:59:17;;;;;;;7.30;1.75;;;;;;;;;;5030769;28;20041;-45
2022/05/26 14:02:05;;;;;;;4.53;1.48;;;;;;;;;;5030848;28;20034;-46
2022/05/26 14:04:37;;;;;;;6.85;1.63;;;;;;;;;;5030986;28;20513;-46
2022/05/26 14:07:25;;;;;;;4.47;1.55;;;;;;;;;;5030810;28;20111;-46
2022/05/26 14:10:09;;;;;;;7.18;1.77;;;;;;;;;;5031390;28;20049;-45
2022/05/26 14:12:36;;;;;;;7.28;1.98;;;;;;;;;;5031455;28;20502;-47
2022/05/26 14:15:04;;;;;;;5.03;1.75;;;;;;;;;;5030941;28;20487;-48
2022/05/26 14:17:36;;;;;;;8.45;2.20;;;;;;;;;;5031449;28;20029;-48
2022/05/26 14:20:05;;;;;;;5.70;1.70;;;;;;;;;;5030881;28;20029;-49
2022/05/26 14:22:34;;;;;;;7.82;1.88;;;;;;;;;;5031506;28;20029;-49
2022/05/26 14:25:01;;;;;;;8.05;1.48;;;;;;;;;;5031589;28;20122;-47
2022/05/26 14:27:29;;;;;;;5.05;1.67;;;;;;;;;;5031026;28;20025;-46
2022/05/26 14:29:58;;;;;;;6.00;1.30;;;;;;;;;;5030997;28;20025;-47
2022/05/26 14:32:27;;;;;;;10.52;1.52;;;;;;;;;;5031043;28;20025;-47
2022/05/26 14:34:56;;;;;;;4.88;1.50;;;;;;;;;;5031270;28;20034;-46
2022/05/26 14:37:23;;;;;;;6.63;1.60;;;;;;;;;;5013327;28;20041;-45
2022/05/26 14:39:52;;;;;;;8.68;1.70;;;;;;;;;;5013579;28;20083;-47
2022/05/26 14:42:21;;;;;;;7.65;1.70;;;;;;;;;;5031299;28;20033;-50
2022/05/26 14:44:50;;;;;;;9.00;1.52;;;;;;;;;;5031057;28;20395;-45
2022/05/26 14:47:18;;;;;;;7.88;1.45;;;;;;;;;;5043211;28;20051;-47
2022/05/26 14:49:45;;;;;;;9.93;1.63;;;;;;;;;;5054543;28;20493;-46
2022/05/26 14:52:14;;;;;;;9.05;2.00;;;;;;;;;;5053548;28;20063;-49
2022/05/26 14:57:26;;;;;;;8.95;1.70;;;;;;;;;;5054613;28;20052;-45
2022/05/26 14:59:53;;;;;;;9.27;1.45;;;;;;;;;;5046473;28;20028;-50
2022/05/26 15:02:21;;;;;;;19.75;2.75;;;;;;;;;;5052974;28;20021;-47
2022/05/26 15:04:48;;;;;;;17.27;2.33;;;;;;;;;;5054329;28;21164;-48
2022/05/26 15:07:18;;;;;;;16.10;2.05;;;;;;;;;;5052725;28;20053;-47
2022/05/26 15:09:46;;;;;;;12.40;1.75;;;;;;;;;;5054512;28;20107;-47
2022/05/26 15:12:13;;;;;;;11.50;1.77;;;;;;;;;;5052307;28;20029;-45
2022/05/26 15:14:40;;;;;;;14.20;1.75;;;;;;;;;;5053224;28;20203;-46
2022/05/26 15:17:11;;;;;;;8.55;1.83;;;;;;;;;;5022115;28;20033;-47
2022/05/26 15:19:42;;;;;;;13.15;1.98;;;;;;;;;;5051239;28;20079;-46
2022/05/26 15:22:09;;;;;;;13.52;2.08;;;;;;;;;;5034277;28;20029;-45
2022/05/26 15:24:36;;;;;;;13.32;2.42;;;;;;;;;;5052818;28;20044;-45
2022/05/26 15:27:03;;;;;;;19.85;3.53;;;;;;;;;;5052823;28;20127;-45
2022/05/26 15:29:30;;;;;;;26.23;6.32;;;;;;;;;;5053773;28;20036;-44
2022/05/26 15:31:57;;;;;;;34.72;7.90;;;;;;;;;;5051795;28;20037;-48
2022/05/26 15:34:25;;;;;;;29.90;6.88;;;;;;;;;;5052037;28;20090;-47
2022/05/26 15:36:53;;;;;;;54.08;14.10;;;;;;;;;;5052652;28;20013;-47
2022/05/26 15:39:20;;;;;;;61.28;17.33;;;;;;;;;;5052387;28;20047;-50
2022/05/26 15:41:48;;;;;;;63.22;18.77;;;;;;;;;;5052095;28;20024;-50